createdAt,value
2018-01-30T00:02:23.642Z,9.10
2018-01-30T00:07:24.686Z,9.00
2018-01-30T00:09:59.299Z,9.00
2018-01-30T00:12:31.940Z,9.00
2018-01-30T00:15:08.451Z,9.00
2018-01-30T00:17:37.798Z,9.00
2018-01-30T00:20:04.827Z,9.00
2018-01-30T00:22:34.422Z,8.90
2018-01-30T00:25:02.678Z,8.90
2018-01-30T00:30:03.885Z,8.90
2018-01-30T00:35:21.546Z,8.90
2018-01-30T00:40:21.984Z,8.80
2018-01-30T00:42:55.617Z,8.70
2018-01-30T00:45:29.830Z,8.80
2018-01-30T00:48:00.988Z,8.70
2018-01-30T00:55:40.387Z,8.50
2018-01-30T00:58:08.037Z,8.50
2018-01-30T01:00:36.338Z,8.40
2018-01-30T01:03:04.950Z,8.30
2018-01-30T01:05:37.809Z,8.30
2018-01-30T01:08:04.749Z,8.20
2018-01-30T01:13:05.091Z,8.10
2018-01-30T01:15:42.106Z,8.00
2018-01-30T01:18:08.354Z,8.00
2018-01-30T01:20:35.002Z,8.00
2018-01-30T01:23:01.028Z,7.90
2018-01-30T01:25:27.936Z,7.90
2018-01-30T01:27:57.450Z,7.80
2018-01-30T01:30:25.160Z,7.80
2018-01-30T01:32:53.091Z,7.80
2018-01-30T01:35:22.672Z,7.80
2018-01-30T01:37:50.921Z,7.70
2018-01-30T01:40:21.327Z,7.70
2018-01-30T01:42:48.620Z,7.60
2018-01-30T01:45:15.555Z,7.60
2018-01-30T01:47:42.551Z,7.40
2018-01-30T01:50:10.997Z,7.50
2018-01-30T01:52:40.070Z,7.50
2018-01-30T01:55:08.831Z,7.40
2018-01-30T01:57:36.685Z,7.50
2018-01-30T02:00:05.543Z,7.40
2018-01-30T02:02:32.364Z,7.40
2018-01-30T02:05:00.274Z,7.40
2018-01-30T02:07:28.072Z,7.40
2018-01-30T02:10:00.331Z,7.50
2018-01-30T02:12:26.677Z,7.40
2018-01-30T02:17:32.015Z,7.30
2018-01-30T02:20:07.032Z,7.20
2018-01-30T02:22:33.643Z,7.30
2018-01-30T02:25:03.615Z,7.30
2018-01-30T02:27:31.204Z,7.30
2018-01-30T02:29:58.148Z,7.30
2018-01-30T02:32:24.816Z,7.40
2018-01-30T02:34:53.268Z,7.30
2018-01-30T02:37:21.496Z,7.40
2018-01-30T02:39:48.674Z,7.30
2018-01-30T02:42:14.710Z,7.40
2018-01-30T02:44:40.768Z,7.40
2018-01-30T02:47:11.124Z,7.30
2018-01-30T02:49:37.498Z,7.30
2018-01-30T02:52:04.930Z,7.20
2018-01-30T02:54:33.059Z,7.20
2018-01-30T02:57:00.035Z,7.10
2018-01-30T02:59:29.119Z,7.10
2018-01-30T03:01:56.539Z,7.10
2018-01-30T03:04:27.647Z,7.00
2018-01-30T03:06:54.816Z,7.10
2018-01-30T03:09:28.214Z,6.90
2018-01-30T03:11:55.640Z,6.90
2018-01-30T03:17:00.168Z,6.80
2018-01-30T03:19:28.421Z,6.80
2018-01-30T03:21:55.387Z,6.90
2018-01-30T03:24:22.333Z,7.00
2018-01-30T03:26:50.050Z,6.80
2018-01-30T03:29:17.626Z,6.80
2018-01-30T03:31:45.612Z,6.80
2018-01-30T03:34:12.069Z,6.80
2018-01-30T03:36:38.091Z,6.80
2018-01-30T03:39:05.855Z,6.80
2018-01-30T03:41:32.082Z,6.60
2018-01-30T03:43:58.998Z,6.70
2018-01-30T03:46:26.552Z,6.60
2018-01-30T03:48:54.715Z,6.60
2018-01-30T03:51:21.845Z,6.60
2018-01-30T03:53:47.837Z,6.50
2018-01-30T03:56:16.428Z,6.50
2018-01-30T03:58:43.956Z,6.60
2018-01-30T04:01:10.506Z,6.60
2018-01-30T04:03:37.371Z,6.60
2018-01-30T04:06:04.092Z,6.70
2018-01-30T04:08:36.975Z,6.50
2018-01-30T04:11:03.822Z,6.50
2018-01-30T04:13:30.559Z,6.50
2018-01-30T04:15:56.575Z,6.40
2018-01-30T04:18:25.614Z,6.40
2018-01-30T04:20:52.565Z,6.50
2018-01-30T04:23:18.682Z,6.60
2018-01-30T04:25:49.173Z,6.50
2018-01-30T04:28:15.926Z,6.70
2018-01-30T04:30:43.146Z,6.70
2018-01-30T04:33:09.197Z,6.60
2018-01-30T04:35:36.742Z,6.70
2018-01-30T04:38:02.846Z,6.50
2018-01-30T04:40:31.933Z,6.70
2018-01-30T04:42:58.798Z,6.70
2018-01-30T04:45:26.007Z,6.70
2018-01-30T04:47:53.480Z,6.70
2018-01-30T04:50:25.586Z,6.60
2018-01-30T04:52:52.365Z,6.70
2018-01-30T04:55:19.646Z,6.60
2018-01-30T04:57:45.725Z,6.60
2018-01-30T05:00:11.740Z,6.60
2018-01-30T05:02:38.588Z,6.50
2018-01-30T05:05:07.294Z,6.40
2018-01-30T05:07:34.007Z,6.50
2018-01-30T05:10:01.669Z,6.50
2018-01-30T05:12:28.687Z,6.30
2018-01-30T05:14:54.705Z,6.50
2018-01-30T05:17:21.360Z,6.50
2018-01-30T05:19:47.435Z,6.40
2018-01-30T05:22:14.337Z,6.40
2018-01-30T05:24:40.691Z,6.30
2018-01-30T05:27:06.979Z,6.40
2018-01-30T05:29:33.933Z,6.40
2018-01-30T05:32:00.622Z,6.40
2018-01-30T05:34:29.404Z,6.40
2018-01-30T05:36:57.301Z,6.20
2018-01-30T05:39:24.363Z,6.40
2018-01-30T05:41:51.365Z,6.50
2018-01-30T05:44:18.001Z,6.50
2018-01-30T05:46:46.344Z,6.60
2018-01-30T05:49:14.688Z,6.50
2018-01-30T05:51:41.525Z,6.60
2018-01-30T05:54:08.399Z,6.50
2018-01-30T05:56:35.391Z,6.50
2018-01-30T05:59:02.237Z,6.40
2018-01-30T06:01:28.681Z,6.60
2018-01-30T06:03:56.328Z,6.40
2018-01-30T06:10:02.143Z,6.40
2018-01-30T06:12:29.852Z,6.30
2018-01-30T06:15:01.402Z,6.20
2018-01-30T06:17:28.866Z,6.20
2018-01-30T06:19:57.478Z,6.20
2018-01-30T06:22:24.289Z,6.00
2018-01-30T06:24:54.462Z,6.00
2018-01-30T06:27:24.320Z,6.00
2018-01-30T06:29:53.432Z,5.90
2018-01-30T06:32:45.046Z,5.90
2018-01-30T06:37:44.804Z,5.70
2018-01-30T06:40:11.535Z,5.70
2018-01-30T06:42:37.807Z,5.80
2018-01-30T06:45:06.358Z,5.70
2018-01-30T06:47:34.427Z,5.70
2018-01-30T06:50:01.554Z,5.70
2018-01-30T06:52:29.119Z,5.80
2018-01-30T06:54:57.341Z,5.80
2018-01-30T06:59:54.036Z,5.90
2018-01-30T07:02:21.312Z,5.80
2018-01-30T07:04:48.354Z,5.70
2018-01-30T07:07:15.103Z,5.90
2018-01-30T07:12:20.554Z,5.70
2018-01-30T07:14:51.464Z,5.40
2018-01-30T07:17:22.222Z,5.60
2018-01-30T07:19:49.483Z,5.60
2018-01-30T07:22:20.075Z,5.60
2018-01-30T07:24:49.838Z,5.60
2018-01-30T07:35:57.222Z,5.60
2018-01-30T07:38:24.871Z,5.50
2018-01-30T07:43:43.744Z,5.50
2018-01-30T07:46:25.496Z,5.40
2018-01-30T07:48:53.458Z,5.50
2018-01-30T07:51:23.962Z,5.50
2018-01-30T07:53:59.598Z,5.50
2018-01-30T07:56:30.236Z,5.60
2018-01-30T07:59:03.316Z,5.50
2018-01-30T08:01:30.630Z,5.60
2018-01-30T08:04:00.234Z,5.70
2018-01-30T08:06:26.870Z,5.70
2018-01-30T08:08:52.993Z,5.70
2018-01-30T08:11:23.093Z,5.70
2018-01-30T08:13:50.389Z,5.70
2018-01-30T08:16:18.626Z,5.80
2018-01-30T08:18:46.162Z,5.80
2018-01-30T08:21:13.618Z,5.70
2018-01-30T08:23:40.595Z,5.80
2018-01-30T08:26:06.596Z,5.90
2018-01-30T08:28:34.450Z,5.70
2018-01-30T08:31:01.092Z,5.70
2018-01-30T08:33:27.054Z,5.70
2018-01-30T08:35:53.125Z,5.70
2018-01-30T08:38:19.211Z,5.60
2018-01-30T08:40:45.398Z,5.60
2018-01-30T08:43:13.599Z,5.70
2018-01-30T08:45:40.361Z,5.70
2018-01-30T08:48:07.239Z,5.60
2018-01-30T08:50:37.080Z,5.80
2018-01-30T08:53:08.557Z,5.70
2018-01-30T08:55:38.966Z,5.90
2018-01-30T08:58:08.443Z,6.00
2018-01-30T09:00:36.124Z,6.00
2018-01-30T09:03:02.962Z,6.10
2018-01-30T09:05:33.944Z,6.10
2018-01-30T09:08:04.162Z,6.20
2018-01-30T09:10:32.587Z,6.10
2018-01-30T09:13:01.060Z,6.20
2018-01-30T09:15:39.642Z,6.30
2018-01-30T09:18:07.448Z,6.20
2018-01-30T09:20:38.214Z,6.30
2018-01-30T09:23:06.731Z,6.20
2018-01-30T09:25:38.007Z,6.10
2018-01-30T09:28:08.511Z,6.20
2018-01-30T09:30:37.295Z,6.30
2018-01-30T09:33:03.246Z,6.30
2018-01-30T09:35:35.540Z,6.30
2018-01-30T09:38:05.803Z,6.40
2018-01-30T09:40:34.433Z,6.40
2018-01-30T09:43:07.000Z,6.50
2018-01-30T09:45:36.377Z,6.60
2018-01-30T09:48:03.232Z,6.60
2018-01-30T09:53:07.024Z,6.70
2018-01-30T09:55:33.515Z,6.80
2018-01-30T09:58:08.809Z,6.90
2018-01-30T10:00:37.134Z,6.80
2018-01-30T10:05:42.616Z,7.20
2018-01-30T10:08:11.581Z,7.30
2018-01-30T10:10:42.681Z,7.30
2018-01-30T10:13:11.491Z,7.50
2018-01-30T10:15:41.819Z,7.40
2018-01-30T10:20:52.297Z,7.60
2018-01-30T10:23:20.641Z,7.80
2018-01-30T10:25:48.809Z,7.60
2018-01-30T10:28:21.746Z,7.70
2018-01-30T10:30:54.870Z,8.10
2018-01-30T10:33:22.505Z,8.20
2018-01-30T10:35:51.548Z,8.30
2018-01-30T10:38:19.873Z,8.20
2018-01-30T10:40:52.163Z,8.40
2018-01-30T10:43:21.515Z,8.60
2018-01-30T10:45:51.089Z,8.70
2018-01-30T10:48:20.182Z,8.80
2018-01-30T10:50:47.741Z,8.70
2018-01-30T10:53:16.428Z,8.70
2018-01-30T10:55:47.169Z,8.80
2018-01-30T10:58:15.622Z,8.80
2018-01-30T11:00:41.647Z,8.70
2018-01-30T11:03:13.556Z,8.80
2018-01-30T11:05:49.019Z,9.20
2018-01-30T11:08:14.978Z,9.40
2018-01-30T11:10:43.208Z,9.40
2018-01-30T11:13:10.370Z,9.30
2018-01-30T11:15:38.729Z,9.30
2018-01-30T11:18:07.392Z,9.60
2018-01-30T11:20:35.022Z,9.90
2018-01-30T11:23:02.622Z,10.00
2018-01-30T11:25:30.410Z,10.10
2018-01-30T11:27:57.359Z,10.10
2018-01-30T11:30:25.906Z,9.70
2018-01-30T11:32:54.440Z,9.70
2018-01-30T11:35:21.097Z,9.70
2018-01-30T11:37:50.111Z,10.10
2018-01-30T11:40:18.115Z,10.00
2018-01-30T11:42:45.673Z,9.90
2018-01-30T11:45:12.585Z,10.10
2018-01-30T11:47:43.188Z,9.90
2018-01-30T11:50:12.015Z,10.00
2018-01-30T11:52:38.482Z,10.10
2018-01-30T11:55:06.847Z,10.20
2018-01-30T11:57:37.893Z,10.20
2018-01-30T12:00:05.403Z,10.20
2018-01-30T12:02:32.265Z,10.50
2018-01-30T12:05:06.037Z,10.50
2018-01-30T12:07:39.057Z,10.40
2018-01-30T12:10:05.621Z,10.50
2018-01-30T12:12:34.128Z,10.40
2018-01-30T12:15:01.704Z,10.00
2018-01-30T12:17:30.448Z,9.90
2018-01-30T12:19:58.646Z,9.90
2018-01-30T12:22:28.173Z,9.70
2018-01-30T12:24:57.704Z,9.70
2018-01-30T12:27:25.427Z,9.80
2018-01-30T12:29:52.954Z,9.70
2018-01-30T12:32:25.261Z,9.70
2018-01-30T12:34:52.028Z,9.70
2018-01-30T12:37:23.661Z,9.70
2018-01-30T12:39:50.570Z,9.50
2018-01-30T12:42:19.786Z,9.50
2018-01-30T12:44:46.726Z,9.50
2018-01-30T12:47:15.868Z,9.60
2018-01-30T12:49:42.634Z,9.60
2018-01-30T12:52:10.989Z,9.60
2018-01-30T12:54:36.999Z,9.80
2018-01-30T12:57:05.349Z,10.10
2018-01-30T12:59:31.707Z,10.50
2018-01-30T13:01:59.972Z,10.20
2018-01-30T13:04:36.276Z,10.00
2018-01-30T13:07:04.202Z,9.80
2018-01-30T13:09:34.994Z,9.70
2018-01-30T13:12:05.851Z,10.20
2018-01-30T13:14:37.188Z,10.50
2018-01-30T13:17:04.025Z,10.70
2018-01-30T13:19:31.539Z,11.10
2018-01-30T13:22:00.363Z,11.40
2018-01-30T13:24:30.278Z,11.30
2018-01-30T13:26:59.026Z,11.20
2018-01-30T13:29:29.783Z,11.30
2018-01-30T13:31:57.824Z,11.40
2018-01-30T13:34:24.327Z,11.40
2018-01-30T13:36:53.970Z,11.50
2018-01-30T13:39:22.626Z,11.30
2018-01-30T13:41:51.466Z,11.50
2018-01-30T13:44:17.451Z,11.90
2018-01-30T13:46:44.361Z,12.10
2018-01-30T13:49:10.289Z,12.00
2018-01-30T13:51:38.696Z,11.90
2018-01-30T13:54:07.616Z,11.90
2018-01-30T13:56:35.606Z,12.20
2018-01-30T13:59:03.702Z,12.60
2018-01-30T14:01:29.650Z,12.60
2018-01-30T14:03:56.483Z,12.30
2018-01-30T14:06:23.384Z,12.20
2018-01-30T14:08:49.434Z,12.00
2018-01-30T14:11:15.882Z,12.00
2018-01-30T14:13:43.425Z,11.90
2018-01-30T14:16:10.133Z,11.90
2018-01-30T14:18:36.102Z,12.20
2018-01-30T14:21:03.046Z,11.80
2018-01-30T14:23:32.028Z,12.00
2018-01-30T14:26:00.559Z,12.10
2018-01-30T14:28:27.374Z,12.50
2018-01-30T14:30:54.811Z,12.70
2018-01-30T14:33:22.230Z,12.50
2018-01-30T14:35:49.962Z,12.20
2018-01-30T14:38:15.942Z,12.50
2018-01-30T14:40:42.325Z,12.60
2018-01-30T14:43:08.334Z,12.40
2018-01-30T14:45:35.286Z,12.60
2018-01-30T14:48:02.957Z,12.50
2018-01-30T14:50:33.949Z,12.30
2018-01-30T14:53:00.819Z,12.30
2018-01-30T14:55:26.816Z,12.00
2018-01-30T14:57:53.320Z,11.40
2018-01-30T15:00:20.793Z,10.90
2018-01-30T15:02:47.706Z,10.90
2018-01-30T15:05:14.370Z,10.80
2018-01-30T15:07:40.734Z,10.80
2018-01-30T15:10:10.280Z,10.80
2018-01-30T15:12:39.955Z,10.80
2018-01-30T15:15:10.333Z,10.70
2018-01-30T15:17:39.367Z,10.60
2018-01-30T15:20:08.756Z,10.50
2018-01-30T15:22:36.087Z,10.20
2018-01-30T15:25:06.118Z,10.10
2018-01-30T15:27:36.288Z,10.20
2018-01-30T15:30:04.989Z,10.20
2018-01-30T15:32:33.458Z,10.40
2018-01-30T15:35:03.887Z,10.50
2018-01-30T15:37:30.880Z,10.40
2018-01-30T15:40:00.505Z,10.50
2018-01-30T15:42:30.192Z,10.50
2018-01-30T15:45:00.390Z,10.40
2018-01-30T15:47:26.641Z,10.40
2018-01-30T15:49:55.749Z,10.30
2018-01-30T15:52:27.542Z,10.00
2018-01-30T15:54:55.168Z,9.80
2018-01-30T15:57:23.194Z,9.90
2018-01-30T15:59:49.323Z,9.80
2018-01-30T16:02:16.955Z,9.80
2018-01-30T16:04:43.384Z,9.70
2018-01-30T16:07:10.181Z,9.70
2018-01-30T16:09:36.689Z,9.60
2018-01-30T16:12:02.723Z,9.50
2018-01-30T16:14:28.790Z,9.50
2018-01-30T16:16:55.086Z,9.90
2018-01-30T16:19:21.868Z,10.00
2018-01-30T16:21:48.432Z,10.10
2018-01-30T16:24:14.462Z,9.70
2018-01-30T16:26:40.820Z,9.70
2018-01-30T16:29:07.726Z,9.50
2018-01-30T16:31:33.662Z,9.30
2018-01-30T16:33:59.595Z,9.30
2018-01-30T16:36:25.602Z,9.20
2018-01-30T16:38:53.306Z,9.10
2018-01-30T16:41:20.455Z,9.10
2018-01-30T16:43:47.520Z,9.00
2018-01-30T16:46:13.499Z,9.00
2018-01-30T16:48:40.389Z,8.80
2018-01-30T16:51:07.987Z,8.90
2018-01-30T16:53:33.955Z,8.90
2018-01-30T16:55:59.980Z,8.90
2018-01-30T16:58:28.613Z,8.70
2018-01-30T17:00:54.599Z,8.70
2018-01-30T17:03:21.211Z,8.80
2018-01-30T17:05:48.334Z,8.70
2018-01-30T17:08:14.385Z,8.70
2018-01-30T17:10:41.229Z,8.50
2018-01-30T17:13:07.327Z,8.70
2018-01-30T17:15:33.803Z,8.70
2018-01-30T17:18:00.019Z,8.60
2018-01-30T17:20:25.944Z,8.50
2018-01-30T17:22:52.074Z,8.50
2018-01-30T17:25:18.087Z,8.40
2018-01-30T17:27:44.281Z,8.40
2018-01-30T17:30:10.230Z,8.40
2018-01-30T17:32:37.348Z,8.40
2018-01-30T17:37:36.157Z,8.30
2018-01-30T17:40:03.636Z,8.40
2018-01-30T17:42:31.290Z,8.30
2018-01-30T17:44:57.607Z,8.20
2018-01-30T17:47:26.881Z,8.20
2018-01-30T17:49:52.859Z,8.10
2018-01-30T17:52:23.753Z,8.10
2018-01-30T17:54:49.670Z,8.10
2018-01-30T17:57:16.750Z,8.10
2018-01-30T17:59:46.500Z,8.10
2018-01-30T18:02:12.527Z,8.10
2018-01-30T18:04:41.285Z,8.00
2018-01-30T18:07:07.312Z,8.00
2018-01-30T18:09:34.197Z,8.00
2018-01-30T18:12:00.150Z,8.00
2018-01-30T18:14:26.215Z,7.90
2018-01-30T18:16:52.157Z,8.00
2018-01-30T18:19:19.598Z,7.90
2018-01-30T18:21:45.601Z,8.00
2018-01-30T18:24:13.099Z,7.90
2018-01-30T18:26:39.072Z,7.90
2018-01-30T18:29:07.290Z,7.90
2018-01-30T18:31:33.918Z,7.90
2018-01-30T18:34:00.951Z,7.80
2018-01-30T18:36:27.760Z,7.80
2018-01-30T18:38:54.247Z,7.90
2018-01-30T18:41:20.972Z,7.90
2018-01-30T18:43:46.905Z,7.80
2018-01-30T18:46:17.918Z,7.80
2018-01-30T18:48:46.739Z,7.80
2018-01-30T18:51:12.756Z,7.80
2018-01-30T18:53:39.563Z,7.90
2018-01-30T18:56:09.902Z,7.80
2018-01-30T18:58:37.539Z,7.70
2018-01-30T19:01:09.081Z,7.70
2018-01-30T19:03:35.171Z,7.70
2018-01-30T19:06:01.098Z,7.70
2018-01-30T19:08:28.204Z,7.60
2018-01-30T19:10:57.434Z,7.50
2018-01-30T19:13:23.950Z,7.50
2018-01-30T19:15:50.440Z,7.50
2018-01-30T19:18:16.495Z,7.50
2018-01-30T19:20:42.742Z,7.40
2018-01-30T19:23:08.726Z,7.40
2018-01-30T19:25:34.679Z,7.40
2018-01-30T19:28:01.135Z,7.30
2018-01-30T19:30:27.082Z,7.30
2018-01-30T19:32:53.043Z,7.30
2018-01-30T19:35:19.774Z,7.10
2018-01-30T19:37:45.844Z,7.10
2018-01-30T19:40:11.856Z,7.10
2018-01-30T19:42:37.831Z,7.10
2018-01-30T19:45:04.205Z,7.20
2018-01-30T19:47:31.216Z,7.20
2018-01-30T19:49:57.477Z,7.30
2018-01-30T19:52:24.402Z,7.30
2018-01-30T19:54:52.771Z,7.40
2018-01-30T19:57:20.540Z,7.30
2018-01-30T19:59:46.607Z,7.40
2018-01-30T20:02:13.031Z,7.40
2018-01-30T20:04:41.356Z,7.30
2018-01-30T20:07:08.598Z,7.30
2018-01-30T20:09:34.773Z,7.20
2018-01-30T20:12:02.572Z,7.30
2018-01-30T20:14:30.017Z,7.30
2018-01-30T20:16:56.554Z,7.40
2018-01-30T20:19:22.624Z,7.40
2018-01-30T20:21:48.980Z,7.40
2018-01-30T20:24:16.088Z,7.40
2018-01-30T20:26:44.824Z,7.40
2018-01-30T20:29:15.333Z,7.40
2018-01-30T20:31:42.965Z,7.40
2018-01-30T20:34:12.556Z,7.40
2018-01-30T20:36:40.699Z,7.40
2018-01-30T20:39:09.402Z,7.50
2018-01-30T20:41:36.246Z,7.40
2018-01-30T20:44:04.006Z,7.40
2018-01-30T20:46:30.786Z,7.50
2018-01-30T20:48:58.526Z,7.50
2018-01-30T20:51:25.472Z,7.40
2018-01-30T20:53:51.518Z,7.50
2018-01-30T20:56:21.392Z,7.50
2018-01-30T20:58:48.726Z,7.40
2018-01-30T21:01:17.346Z,7.40
2018-01-30T21:06:16.242Z,7.50
2018-01-30T21:11:21.424Z,7.40
2018-01-30T21:16:21.841Z,7.40
2018-01-30T21:18:48.681Z,7.40
2018-01-30T21:21:15.150Z,7.30
2018-01-30T21:23:42.742Z,7.30
2018-01-30T21:26:09.413Z,7.40
2018-01-30T21:28:35.659Z,7.40
2018-01-30T21:31:02.178Z,7.50
2018-01-30T21:33:29.239Z,7.40
2018-01-30T21:35:56.146Z,7.40
2018-01-30T21:38:24.402Z,7.30
2018-01-30T21:40:51.620Z,7.50
2018-01-30T21:43:18.704Z,7.60
2018-01-30T21:45:46.184Z,7.60
2018-01-30T21:48:13.039Z,7.40
2018-01-30T21:50:40.567Z,7.30
2018-01-30T21:53:07.693Z,7.30
2018-01-30T21:55:37.208Z,7.40
2018-01-30T21:58:03.166Z,7.50
2018-01-30T22:00:29.203Z,7.40
2018-01-30T22:02:55.253Z,7.40
2018-01-30T22:05:22.843Z,7.30
2018-01-30T22:07:49.595Z,7.20
2018-01-30T22:10:15.901Z,7.20
2018-01-30T22:12:45.381Z,7.30
2018-01-30T22:15:12.546Z,7.30
2018-01-30T22:17:40.054Z,7.20
2018-01-30T22:20:09.615Z,7.20
2018-01-30T22:22:37.357Z,7.30
2018-01-30T22:25:05.623Z,7.30
2018-01-30T22:27:33.220Z,7.20
2018-01-30T22:29:59.962Z,7.30
2018-01-30T22:32:29.746Z,7.40
2018-01-30T22:34:57.882Z,7.40
2018-01-30T22:37:23.890Z,7.30
2018-01-30T22:39:52.284Z,7.40
2018-01-30T22:42:19.235Z,7.30
2018-01-30T22:44:45.944Z,7.30
